sensor_id;sensor_type;location;lat;lon;timestamp;P1;durP1;ratioP1;P2;durP2;ratioP2
70313;SDS011;57725;47.526;18.986;2023-02-11T00:00:34;33.10;;;18.85;;
70313;SDS011;57725;47.526;18.986;2023-02-11T00:03:03;33.30;;;18.80;;
70313;SDS011;57725;47.526;18.986;2023-02-11T00:05:33;32.58;;;18.10;;
70313;SDS011;57725;47.526;18.986;2023-02-11T00:07:59;35.33;;;19.02;;
70313;SDS011;57725;47.526;18.986;2023-02-11T00:10:24;34.70;;;19.35;;
70313;SDS011;57725;47.526;18.986;2023-02-11T00:12:55;33.60;;;18.92;;
70313;SDS011;57725;47.526;18.986;2023-02-11T00:15:20;33.55;;;18.65;;
70313;SDS011;57725;47.526;18.986;2023-02-11T00:17:48;30.95;;;18.45;;
70313;SDS011;57725;47.526;18.986;2023-02-11T00:20:16;30.02;;;17.92;;
70313;SDS011;57725;47.526;18.986;2023-02-11T00:22:44;32.03;;;18.80;;
70313;SDS011;57725;47.526;18.986;2023-02-11T00:27:43;33.22;;;19.55;;
70313;SDS011;57725;47.526;18.986;2023-02-11T00:30:09;34.65;;;19.05;;
70313;SDS011;57725;47.526;18.986;2023-02-11T00:32:38;33.42;;;18.42;;
70313;SDS011;57725;47.526;18.986;2023-02-11T00:35:03;32.40;;;17.83;;
70313;SDS011;57725;47.526;18.986;2023-02-11T00:37:28;32.35;;;18.40;;
70313;SDS011;57725;47.526;18.986;2023-02-11T00:39:54;34.22;;;19.55;;
70313;SDS011;57725;47.526;18.986;2023-02-11T00:42:19;33.95;;;18.77;;
70313;SDS011;57725;47.526;18.986;2023-02-11T00:44:45;32.10;;;18.23;;
70313;SDS011;57725;47.526;18.986;2023-02-11T00:47:10;32.47;;;18.45;;
70313;SDS011;57725;47.526;18.986;2023-02-11T00:49:38;34.45;;;18.58;;
70313;SDS011;57725;47.526;18.986;2023-02-11T00:52:05;36.58;;;19.98;;
70313;SDS011;57725;47.526;18.986;2023-02-11T00:54:31;34.40;;;19.45;;
70313;SDS011;57725;47.526;18.986;2023-02-11T00:56:56;32.97;;;18.83;;
70313;SDS011;57725;47.526;18.986;2023-02-11T00:59:24;32.15;;;19.02;;
70313;SDS011;57725;47.526;18.986;2023-02-11T01:01:50;34.83;;;19.00;;
70313;SDS011;57725;47.526;18.986;2023-02-11T01:04:15;34.88;;;19.48;;
70313;SDS011;57725;47.526;18.986;2023-02-11T01:06:43;32.72;;;18.15;;
70313;SDS011;57725;47.526;18.986;2023-02-11T01:09:11;30.08;;;17.95;;
70313;SDS011;57725;47.526;18.986;2023-02-11T01:11:39;34.88;;;18.77;;
70313;SDS011;57725;47.526;18.986;2023-02-11T01:14:04;35.97;;;20.38;;
70313;SDS011;57725;47.526;18.986;2023-02-11T01:16:32;32.60;;;19.65;;
70313;SDS011;57725;47.526;18.986;2023-02-11T01:18:58;32.70;;;18.73;;
70313;SDS011;57725;47.526;18.986;2023-02-11T01:21:23;34.10;;;19.48;;
70313;SDS011;57725;47.526;18.986;2023-02-11T01:23:51;31.75;;;19.38;;
70313;SDS011;57725;47.526;18.986;2023-02-11T01:26:17;35.00;;;18.77;;
70313;SDS011;57725;47.526;18.986;2023-02-11T01:28:45;35.30;;;19.58;;
70313;SDS011;57725;47.526;18.986;2023-02-11T01:31:10;30.95;;;18.20;;
70313;SDS011;57725;47.526;18.986;2023-02-11T01:33:36;34.90;;;20.40;;
70313;SDS011;57725;47.526;18.986;2023-02-11T01:36:04;33.83;;;18.65;;
70313;SDS011;57725;47.526;18.986;2023-02-11T01:38:30;33.40;;;19.23;;
70313;SDS011;57725;47.526;18.986;2023-02-11T01:40:59;33.40;;;18.73;;
70313;SDS011;57725;47.526;18.986;2023-02-11T01:43:31;33.30;;;19.52;;
70313;SDS011;57725;47.526;18.986;2023-02-11T01:46:11;33.10;;;19.40;;
70313;SDS011;57725;47.526;18.986;2023-02-11T01:48:42;36.15;;;19.88;;
70313;SDS011;57725;47.526;18.986;2023-02-11T01:53:47;32.65;;;18.77;;
70313;SDS011;57725;47.526;18.986;2023-02-11T01:56:40;34.97;;;19.73;;
70313;SDS011;57725;47.526;18.986;2023-02-11T02:05:09;33.65;;;19.77;;
70313;SDS011;57725;47.526;18.986;2023-02-11T02:07:40;31.90;;;18.55;;
70313;SDS011;57725;47.526;18.986;2023-02-11T02:10:33;32.05;;;19.00;;
70313;SDS011;57725;47.526;18.986;2023-02-11T02:13:00;32.35;;;17.38;;
70313;SDS011;57725;47.526;18.986;2023-02-11T02:15:34;35.25;;;19.83;;
70313;SDS011;57725;47.526;18.986;2023-02-11T02:37:39;35.20;;;18.98;;
70313;SDS011;57725;47.526;18.986;2023-02-11T02:42:44;30.45;;;17.48;;
70313;SDS011;57725;47.526;18.986;2023-02-11T02:45:12;33.58;;;18.35;;
70313;SDS011;57725;47.526;18.986;2023-02-11T02:47:40;31.63;;;17.95;;
70313;SDS011;57725;47.526;18.986;2023-02-11T02:50:05;31.67;;;17.83;;
70313;SDS011;57725;47.526;18.986;2023-02-11T02:52:34;32.92;;;18.55;;
70313;SDS011;57725;47.526;18.986;2023-02-11T03:06:20;29.70;;;18.55;;
70313;SDS011;57725;47.526;18.986;2023-02-11T03:11:16;34.60;;;18.67;;
70313;SDS011;57725;47.526;18.986;2023-02-11T03:13:43;29.75;;;17.05;;
70313;SDS011;57725;47.526;18.986;2023-02-11T03:16:22;32.67;;;19.48;;
70313;SDS011;57725;47.526;18.986;2023-02-11T03:18:55;34.15;;;19.00;;
70313;SDS011;57725;47.526;18.986;2023-02-11T03:21:24;31.20;;;17.98;;
70313;SDS011;57725;47.526;18.986;2023-02-11T03:23:54;35.83;;;19.92;;
70313;SDS011;57725;47.526;18.986;2023-02-11T03:28:58;32.20;;;17.92;;
70313;SDS011;57725;47.526;18.986;2023-02-11T03:34:35;32.10;;;18.17;;
70313;SDS011;57725;47.526;18.986;2023-02-11T03:37:24;31.73;;;18.38;;
70313;SDS011;57725;47.526;18.986;2023-02-11T03:40:05;31.48;;;18.70;;
70313;SDS011;57725;47.526;18.986;2023-02-11T03:42:41;31.98;;;18.65;;
70313;SDS011;57725;47.526;18.986;2023-02-11T03:45:10;32.65;;;18.23;;
70313;SDS011;57725;47.526;18.986;2023-02-11T03:47:39;34.33;;;18.42;;
70313;SDS011;57725;47.526;18.986;2023-02-11T03:50:07;32.88;;;18.75;;
70313;SDS011;57725;47.526;18.986;2023-02-11T03:52:36;31.55;;;19.13;;
70313;SDS011;57725;47.526;18.986;2023-02-11T03:55:06;32.20;;;19.08;;
70313;SDS011;57725;47.526;18.986;2023-02-11T03:57:36;32.10;;;18.75;;
70313;SDS011;57725;47.526;18.986;2023-02-11T04:00:03;33.35;;;18.85;;
70313;SDS011;57725;47.526;18.986;2023-02-11T04:02:30;35.83;;;19.27;;
70313;SDS011;57725;47.526;18.986;2023-02-11T04:04:59;33.08;;;19.42;;
70313;SDS011;57725;47.526;18.986;2023-02-11T04:07:25;34.35;;;18.92;;
70313;SDS011;57725;47.526;18.986;2023-02-11T04:09:50;31.65;;;17.70;;
70313;SDS011;57725;47.526;18.986;2023-02-11T04:12:16;36.47;;;19.05;;
70313;SDS011;57725;47.526;18.986;2023-02-11T04:14:42;32.78;;;19.65;;
70313;SDS011;57725;47.526;18.986;2023-02-11T04:17:07;32.00;;;18.73;;
70313;SDS011;57725;47.526;18.986;2023-02-11T04:19:32;38.17;;;19.67;;
70313;SDS011;57725;47.526;18.986;2023-02-11T04:22:00;34.55;;;18.98;;
70313;SDS011;57725;47.526;18.986;2023-02-11T04:24:26;33.75;;;18.52;;
70313;SDS011;57725;47.526;18.986;2023-02-11T04:26:52;31.52;;;18.13;;
70313;SDS011;57725;47.526;18.986;2023-02-11T04:29:17;31.83;;;18.38;;
70313;SDS011;57725;47.526;18.986;2023-02-11T04:31:43;32.38;;;18.35;;
70313;SDS011;57725;47.526;18.986;2023-02-11T04:34:11;35.03;;;18.23;;
70313;SDS011;57725;47.526;18.986;2023-02-11T04:36:37;30.48;;;18.25;;
70313;SDS011;57725;47.526;18.986;2023-02-11T04:39:03;33.30;;;17.70;;
70313;SDS011;57725;47.526;18.986;2023-02-11T04:41:28;31.17;;;18.38;;
70313;SDS011;57725;47.526;18.986;2023-02-11T04:43:54;33.25;;;19.52;;
70313;SDS011;57725;47.526;18.986;2023-02-11T04:46:19;32.53;;;18.27;;
70313;SDS011;57725;47.526;18.986;2023-02-11T04:48:45;31.73;;;17.70;;
70313;SDS011;57725;47.526;18.986;2023-02-11T04:51:10;35.22;;;19.85;;
70313;SDS011;57725;47.526;18.986;2023-02-11T04:53:35;34.45;;;18.70;;
70313;SDS011;57725;47.526;18.986;2023-02-11T04:56:03;35.88;;;17.92;;
70313;SDS011;57725;47.526;18.986;2023-02-11T04:58:31;33.90;;;19.08;;
70313;SDS011;57725;47.526;18.986;2023-02-11T05:01:04;31.13;;;18.00;;
70313;SDS011;57725;47.526;18.986;2023-02-11T05:03:33;34.25;;;19.63;;
70313;SDS011;57725;47.526;18.986;2023-02-11T05:06:02;35.13;;;19.42;;
70313;SDS011;57725;47.526;18.986;2023-02-11T05:08:31;33.13;;;19.13;;
70313;SDS011;57725;47.526;18.986;2023-02-11T05:10:57;31.55;;;17.98;;
70313;SDS011;57725;47.526;18.986;2023-02-11T05:13:23;32.67;;;18.38;;
70313;SDS011;57725;47.526;18.986;2023-02-11T05:15:48;34.13;;;18.80;;
70313;SDS011;57725;47.526;18.986;2023-02-11T05:18:13;28.70;;;17.27;;
70313;SDS011;57725;47.526;18.986;2023-02-11T05:20:41;30.30;;;17.33;;
70313;SDS011;57725;47.526;18.986;2023-02-11T05:23:10;32.78;;;18.10;;
70313;SDS011;57725;47.526;18.986;2023-02-11T05:25:38;34.30;;;18.90;;
70313;SDS011;57725;47.526;18.986;2023-02-11T05:28:03;32.78;;;18.15;;
70313;SDS011;57725;47.526;18.986;2023-02-11T05:30:30;31.88;;;18.65;;
70313;SDS011;57725;47.526;18.986;2023-02-11T05:32:58;31.70;;;18.95;;
70313;SDS011;57725;47.526;18.986;2023-02-11T05:35:23;32.60;;;18.85;;
70313;SDS011;57725;47.526;18.986;2023-02-11T05:37:48;31.30;;;17.70;;
70313;SDS011;57725;47.526;18.986;2023-02-11T05:40:14;30.92;;;17.67;;
70313;SDS011;57725;47.526;18.986;2023-02-11T05:42:40;30.00;;;17.70;;
70313;SDS011;57725;47.526;18.986;2023-02-11T05:45:08;33.50;;;18.92;;
70313;SDS011;57725;47.526;18.986;2023-02-11T05:47:35;30.33;;;18.60;;
70313;SDS011;57725;47.526;18.986;2023-02-11T05:50:06;31.73;;;18.17;;
70313;SDS011;57725;47.526;18.986;2023-02-11T05:52:31;34.33;;;18.77;;
70313;SDS011;57725;47.526;18.986;2023-02-11T05:54:57;30.10;;;17.48;;
70313;SDS011;57725;47.526;18.986;2023-02-11T05:57:22;30.77;;;17.27;;
70313;SDS011;57725;47.526;18.986;2023-02-11T05:59:48;33.35;;;19.38;;
70313;SDS011;57725;47.526;18.986;2023-02-11T06:02:15;34.50;;;19.08;;
70313;SDS011;57725;47.526;18.986;2023-02-11T06:04:43;29.95;;;17.83;;
70313;SDS011;57725;47.526;18.986;2023-02-11T06:07:09;30.08;;;17.33;;
70313;SDS011;57725;47.526;18.986;2023-02-11T06:09:36;34.53;;;18.92;;
70313;SDS011;57725;47.526;18.986;2023-02-11T06:12:04;30.33;;;17.98;;
70313;SDS011;57725;47.526;18.986;2023-02-11T06:14:31;35.13;;;19.80;;
70313;SDS011;57725;47.526;18.986;2023-02-11T06:17:02;32.40;;;18.10;;
70313;SDS011;57725;47.526;18.986;2023-02-11T06:19:27;34.20;;;20.08;;
70313;SDS011;57725;47.526;18.986;2023-02-11T06:21:55;33.70;;;17.92;;
70313;SDS011;57725;47.526;18.986;2023-02-11T06:24:22;30.67;;;17.30;;
70313;SDS011;57725;47.526;18.986;2023-02-11T06:26:47;33.13;;;18.88;;
70313;SDS011;57725;47.526;18.986;2023-02-11T06:29:15;33.70;;;18.90;;
70313;SDS011;57725;47.526;18.986;2023-02-11T06:31:41;33.63;;;18.90;;
70313;SDS011;57725;47.526;18.986;2023-02-11T06:34:09;32.97;;;18.52;;
70313;SDS011;57725;47.526;18.986;2023-02-11T06:36:38;32.53;;;18.70;;
70313;SDS011;57725;47.526;18.986;2023-02-11T06:39:04;33.33;;;18.70;;
70313;SDS011;57725;47.526;18.986;2023-02-11T06:41:29;33.55;;;18.35;;
70313;SDS011;57725;47.526;18.986;2023-02-11T06:43:55;34.10;;;20.08;;
70313;SDS011;57725;47.526;18.986;2023-02-11T06:46:25;35.55;;;18.92;;
70313;SDS011;57725;47.526;18.986;2023-02-11T06:48:50;32.22;;;17.27;;
70313;SDS011;57725;47.526;18.986;2023-02-11T06:51:19;32.63;;;18.75;;
70313;SDS011;57725;47.526;18.986;2023-02-11T06:53:45;33.00;;;18.80;;
70313;SDS011;57725;47.526;18.986;2023-02-11T06:56:21;32.00;;;17.45;;
70313;SDS011;57725;47.526;18.986;2023-02-11T06:58:47;34.15;;;18.65;;
70313;SDS011;57725;47.526;18.986;2023-02-11T07:01:15;30.75;;;17.50;;
70313;SDS011;57725;47.526;18.986;2023-02-11T07:03:44;28.27;;;17.33;;
70313;SDS011;57725;47.526;18.986;2023-02-11T07:06:15;33.25;;;17.95;;
70313;SDS011;57725;47.526;18.986;2023-02-11T07:08:45;33.20;;;18.77;;
70313;SDS011;57725;47.526;18.986;2023-02-11T07:11:11;32.80;;;17.67;;
70313;SDS011;57725;47.526;18.986;2023-02-11T07:13:38;34.95;;;17.98;;
70313;SDS011;57725;47.526;18.986;2023-02-11T07:16:04;32.95;;;18.55;;
70313;SDS011;57725;47.526;18.986;2023-02-11T07:18:33;32.50;;;18.95;;
70313;SDS011;57725;47.526;18.986;2023-02-11T07:20:59;35.60;;;19.20;;
70313;SDS011;57725;47.526;18.986;2023-02-11T07:23:28;35.30;;;18.58;;
70313;SDS011;57725;47.526;18.986;2023-02-11T07:25:54;34.47;;;18.75;;
70313;SDS011;57725;47.526;18.986;2023-02-11T07:28:19;32.75;;;18.58;;
70313;SDS011;57725;47.526;18.986;2023-02-11T07:30:47;31.25;;;19.13;;
70313;SDS011;57725;47.526;18.986;2023-02-11T07:33:12;33.50;;;18.08;;
70313;SDS011;57725;47.526;18.986;2023-02-11T07:35:37;30.70;;;17.83;;
70313;SDS011;57725;47.526;18.986;2023-02-11T07:38:03;33.22;;;18.33;;
70313;SDS011;57725;47.526;18.986;2023-02-11T07:40:39;35.03;;;18.67;;
70313;SDS011;57725;47.526;18.986;2023-02-11T07:43:07;32.80;;;17.73;;
70313;SDS011;57725;47.526;18.986;2023-02-11T07:45:33;33.28;;;18.50;;
70313;SDS011;57725;47.526;18.986;2023-02-11T07:48:05;35.35;;;19.08;;
70313;SDS011;57725;47.526;18.986;2023-02-11T07:50:30;31.77;;;18.13;;
70313;SDS011;57725;47.526;18.986;2023-02-11T07:52:55;32.58;;;17.70;;
70313;SDS011;57725;47.526;18.986;2023-02-11T07:55:23;31.80;;;19.23;;
70313;SDS011;57725;47.526;18.986;2023-02-11T07:57:49;29.08;;;16.98;;
70313;SDS011;57725;47.526;18.986;2023-02-11T08:00:14;31.85;;;18.25;;
70313;SDS011;57725;47.526;18.986;2023-02-11T08:02:41;32.53;;;18.58;;
70313;SDS011;57725;47.526;18.986;2023-02-11T08:05:06;30.10;;;17.70;;
70313;SDS011;57725;47.526;18.986;2023-02-11T08:07:32;31.50;;;17.70;;
70313;SDS011;57725;47.526;18.986;2023-02-11T08:09:59;32.15;;;17.20;;
70313;SDS011;57725;47.526;18.986;2023-02-11T08:12:27;35.15;;;18.30;;
70313;SDS011;57725;47.526;18.986;2023-02-11T08:14:55;31.77;;;17.23;;
70313;SDS011;57725;47.526;18.986;2023-02-11T08:17:20;32.70;;;18.05;;
70313;SDS011;57725;47.526;18.986;2023-02-11T08:19:46;27.83;;;17.17;;
70313;SDS011;57725;47.526;18.986;2023-02-11T08:22:11;32.35;;;17.40;;
70313;SDS011;57725;47.526;18.986;2023-02-11T08:24:37;32.15;;;16.77;;
70313;SDS011;57725;47.526;18.986;2023-02-11T08:27:03;30.40;;;18.02;;
70313;SDS011;57725;47.526;18.986;2023-02-11T08:29:31;29.02;;;16.27;;
70313;SDS011;57725;47.526;18.986;2023-02-11T08:31:56;29.90;;;16.77;;
70313;SDS011;57725;47.526;18.986;2023-02-11T08:34:21;29.65;;;16.15;;
70313;SDS011;57725;47.526;18.986;2023-02-11T08:36:47;33.33;;;17.20;;
70313;SDS011;57725;47.526;18.986;2023-02-11T08:39:17;26.38;;;16.35;;
70313;SDS011;57725;47.526;18.986;2023-02-11T08:41:45;27.00;;;16.67;;
70313;SDS011;57725;47.526;18.986;2023-02-11T08:44:15;28.88;;;16.73;;
70313;SDS011;57725;47.526;18.986;2023-02-11T08:46:43;29.23;;;16.75;;
70313;SDS011;57725;47.526;18.986;2023-02-11T08:49:09;28.05;;;16.58;;
70313;SDS011;57725;47.526;18.986;2023-02-11T08:51:37;27.88;;;16.17;;
70313;SDS011;57725;47.526;18.986;2023-02-11T08:54:04;32.00;;;17.48;;
70313;SDS011;57725;47.526;18.986;2023-02-11T08:56:36;30.40;;;17.85;;
70313;SDS011;57725;47.526;18.986;2023-02-11T08:59:02;29.67;;;17.15;;
70313;SDS011;57725;47.526;18.986;2023-02-11T09:01:29;28.88;;;16.42;;
70313;SDS011;57725;47.526;18.986;2023-02-11T09:03:55;27.27;;;16.20;;
70313;SDS011;57725;47.526;18.986;2023-02-11T09:06:25;28.92;;;16.95;;
70313;SDS011;57725;47.526;18.986;2023-02-11T09:08:52;28.13;;;16.73;;
70313;SDS011;57725;47.526;18.986;2023-02-11T09:11:25;29.15;;;16.20;;
70313;SDS011;57725;47.526;18.986;2023-02-11T09:13:53;27.00;;;16.23;;
70313;SDS011;57725;47.526;18.986;2023-02-11T09:16:19;26.70;;;16.30;;
70313;SDS011;57725;47.526;18.986;2023-02-11T09:18:57;28.88;;;15.90;;
70313;SDS011;57725;47.526;18.986;2023-02-11T09:21:23;27.67;;;16.20;;
70313;SDS011;57725;47.526;18.986;2023-02-11T09:23:52;27.83;;;16.75;;
70313;SDS011;57725;47.526;18.986;2023-02-11T09:26:21;25.55;;;15.77;;
70313;SDS011;57725;47.526;18.986;2023-02-11T09:28:48;27.83;;;16.58;;
70313;SDS011;57725;47.526;18.986;2023-02-11T09:31:14;31.42;;;17.35;;
70313;SDS011;57725;47.526;18.986;2023-02-11T09:33:42;26.80;;;16.27;;
70313;SDS011;57725;47.526;18.986;2023-02-11T09:36:12;25.27;;;15.48;;
70313;SDS011;57725;47.526;18.986;2023-02-11T09:38:42;29.20;;;16.42;;
70313;SDS011;57725;47.526;18.986;2023-02-11T09:46:25;29.10;;;16.15;;
70313;SDS011;57725;47.526;18.986;2023-02-11T09:48:57;29.90;;;15.68;;
70313;SDS011;57725;47.526;18.986;2023-02-11T09:54:26;28.23;;;16.08;;
70313;SDS011;57725;47.526;18.986;2023-02-11T09:56:56;27.50;;;14.82;;
70313;SDS011;57725;47.526;18.986;2023-02-11T09:59:22;28.33;;;15.52;;
70313;SDS011;57725;47.526;18.986;2023-02-11T10:04:39;26.10;;;16.05;;
70313;SDS011;57725;47.526;18.986;2023-02-11T10:12:40;27.10;;;16.50;;
70313;SDS011;57725;47.526;18.986;2023-02-11T10:20:38;30.70;;;17.55;;
70313;SDS011;57725;47.526;18.986;2023-02-11T10:23:20;30.05;;;16.63;;
70313;SDS011;57725;47.526;18.986;2023-02-11T10:25:52;25.27;;;14.57;;
70313;SDS011;57725;47.526;18.986;2023-02-11T10:28:21;28.88;;;16.33;;
70313;SDS011;57725;47.526;18.986;2023-02-11T10:31:06;29.08;;;16.33;;
70313;SDS011;57725;47.526;18.986;2023-02-11T10:36:15;25.60;;;15.13;;
70313;SDS011;57725;47.526;18.986;2023-02-11T10:38:51;28.60;;;17.20;;
70313;SDS011;57725;47.526;18.986;2023-02-11T10:41:19;30.02;;;16.95;;
70313;SDS011;57725;47.526;18.986;2023-02-11T10:43:58;29.00;;;16.55;;
70313;SDS011;57725;47.526;18.986;2023-02-11T10:46:28;33.25;;;18.10;;
70313;SDS011;57725;47.526;18.986;2023-02-11T10:48:59;31.27;;;17.95;;
70313;SDS011;57725;47.526;18.986;2023-02-11T10:51:27;31.60;;;17.35;;
70313;SDS011;57725;47.526;18.986;2023-02-11T10:56:30;28.70;;;16.73;;
70313;SDS011;57725;47.526;18.986;2023-02-11T10:59:01;31.25;;;16.58;;
70313;SDS011;57725;47.526;18.986;2023-02-11T11:04:33;29.17;;;16.13;;
70313;SDS011;57725;47.526;18.986;2023-02-11T11:07:11;27.08;;;16.42;;
70313;SDS011;57725;47.526;18.986;2023-02-11T11:09:47;30.08;;;15.90;;
70313;SDS011;57725;47.526;18.986;2023-02-11T11:14:56;30.75;;;18.67;;
70313;SDS011;57725;47.526;18.986;2023-02-11T11:17:24;30.88;;;17.27;;
70313;SDS011;57725;47.526;18.986;2023-02-11T11:19:55;33.20;;;18.35;;
70313;SDS011;57725;47.526;18.986;2023-02-11T11:22:41;31.27;;;18.10;;
70313;SDS011;57725;47.526;18.986;2023-02-11T11:25:24;30.48;;;16.80;;
70313;SDS011;57725;47.526;18.986;2023-02-11T11:27:56;29.55;;;17.88;;
70313;SDS011;57725;47.526;18.986;2023-02-11T11:30:26;32.88;;;17.23;;
70313;SDS011;57725;47.526;18.986;2023-02-11T11:32:57;32.05;;;17.95;;
70313;SDS011;57725;47.526;18.986;2023-02-11T11:35:27;31.80;;;18.45;;
70313;SDS011;57725;47.526;18.986;2023-02-11T11:37:57;32.03;;;17.60;;
70313;SDS011;57725;47.526;18.986;2023-02-11T11:40:34;32.65;;;18.75;;
70313;SDS011;57725;47.526;18.986;2023-02-11T11:50:44;28.00;;;17.15;;
70313;SDS011;57725;47.526;18.986;2023-02-11T11:56:05;29.42;;;17.10;;
70313;SDS011;57725;47.526;18.986;2023-02-11T11:58:35;32.60;;;18.10;;
70313;SDS011;57725;47.526;18.986;2023-02-11T12:08:57;30.40;;;17.00;;
70313;SDS011;57725;47.526;18.986;2023-02-11T12:26:21;29.52;;;16.80;;
70313;SDS011;57725;47.526;18.986;2023-02-11T12:42:49;31.77;;;16.48;;
70313;SDS011;57725;47.526;18.986;2023-02-11T12:48:21;29.65;;;16.05;;
70313;SDS011;57725;47.526;18.986;2023-02-11T12:53:31;27.65;;;16.27;;
70313;SDS011;57725;47.526;18.986;2023-02-11T12:56:04;29.05;;;15.95;;
70313;SDS011;57725;47.526;18.986;2023-02-11T12:58:35;30.65;;;16.63;;
70313;SDS011;57725;47.526;18.986;2023-02-11T13:01:03;29.98;;;16.77;;
70313;SDS011;57725;47.526;18.986;2023-02-11T13:03:34;30.88;;;17.20;;
70313;SDS011;57725;47.526;18.986;2023-02-11T13:06:06;26.33;;;16.27;;
70313;SDS011;57725;47.526;18.986;2023-02-11T13:11:06;26.57;;;14.37;;
70313;SDS011;57725;47.526;18.986;2023-02-11T13:13:56;29.10;;;16.00;;
70313;SDS011;57725;47.526;18.986;2023-02-11T13:25:14;28.58;;;15.77;;
70313;SDS011;57725;47.526;18.986;2023-02-11T13:27:37;25.30;;;14.73;;
70313;SDS011;57725;47.526;18.986;2023-02-11T13:38:17;27.80;;;15.20;;
70313;SDS011;57725;47.526;18.986;2023-02-11T13:41:25;27.00;;;15.43;;
70313;SDS011;57725;47.526;18.986;2023-02-11T13:44:24;29.35;;;15.48;;
70313;SDS011;57725;47.526;18.986;2023-02-11T13:49:31;27.20;;;14.73;;
70313;SDS011;57725;47.526;18.986;2023-02-11T13:51:57;26.90;;;14.02;;
70313;SDS011;57725;47.526;18.986;2023-02-11T13:54:29;27.50;;;15.07;;
70313;SDS011;57725;47.526;18.986;2023-02-11T13:57:18;28.27;;;15.30;;
70313;SDS011;57725;47.526;18.986;2023-02-11T14:10:50;27.27;;;14.45;;
70313;SDS011;57725;47.526;18.986;2023-02-11T14:21:19;24.95;;;14.25;;
70313;SDS011;57725;47.526;18.986;2023-02-11T14:24:38;28.15;;;14.70;;
70313;SDS011;57725;47.526;18.986;2023-02-11T14:32:02;24.58;;;14.52;;
70313;SDS011;57725;47.526;18.986;2023-02-11T14:40:24;24.17;;;12.60;;
70313;SDS011;57725;47.526;18.986;2023-02-11T14:42:53;23.23;;;13.70;;
70313;SDS011;57725;47.526;18.986;2023-02-11T14:45:22;27.20;;;14.38;;
70313;SDS011;57725;47.526;18.986;2023-02-11T14:47:56;23.40;;;12.90;;
70313;SDS011;57725;47.526;18.986;2023-02-11T14:50:31;25.63;;;12.93;;
70313;SDS011;57725;47.526;18.986;2023-02-11T14:53:01;24.48;;;12.85;;
70313;SDS011;57725;47.526;18.986;2023-02-11T14:55:37;22.33;;;13.38;;
70313;SDS011;57725;47.526;18.986;2023-02-11T14:58:16;22.75;;;13.35;;
70313;SDS011;57725;47.526;18.986;2023-02-11T15:00:46;23.55;;;12.98;;
70313;SDS011;57725;47.526;18.986;2023-02-11T15:03:24;24.02;;;12.75;;
70313;SDS011;57725;47.526;18.986;2023-02-11T15:05:55;22.60;;;13.10;;
70313;SDS011;57725;47.526;18.986;2023-02-11T15:08:43;24.83;;;13.77;;
70313;SDS011;57725;47.526;18.986;2023-02-11T15:11:12;22.67;;;12.80;;
70313;SDS011;57725;47.526;18.986;2023-02-11T15:13:43;22.75;;;12.82;;
70313;SDS011;57725;47.526;18.986;2023-02-11T15:16:31;24.13;;;13.73;;
70313;SDS011;57725;47.526;18.986;2023-02-11T15:19:01;23.20;;;13.13;;
70313;SDS011;57725;47.526;18.986;2023-02-11T15:21:31;23.00;;;12.80;;
70313;SDS011;57725;47.526;18.986;2023-02-11T15:24:03;24.80;;;12.32;;
70313;SDS011;57725;47.526;18.986;2023-02-11T15:27:09;27.85;;;13.85;;
70313;SDS011;57725;47.526;18.986;2023-02-11T15:29:43;25.42;;;14.07;;
70313;SDS011;57725;47.526;18.986;2023-02-11T15:32:17;24.52;;;13.73;;
70313;SDS011;57725;47.526;18.986;2023-02-11T15:34:47;22.75;;;12.63;;
70313;SDS011;57725;47.526;18.986;2023-02-11T15:39:48;23.30;;;12.90;;
70313;SDS011;57725;47.526;18.986;2023-02-11T15:44:43;22.30;;;11.98;;
70313;SDS011;57725;47.526;18.986;2023-02-11T15:47:12;22.95;;;12.60;;
70313;SDS011;57725;47.526;18.986;2023-02-11T15:49:43;24.73;;;13.13;;
70313;SDS011;57725;47.526;18.986;2023-02-11T15:52:10;23.02;;;13.10;;
70313;SDS011;57725;47.526;18.986;2023-02-11T15:54:46;24.35;;;13.02;;
70313;SDS011;57725;47.526;18.986;2023-02-11T15:57:16;22.60;;;12.05;;
70313;SDS011;57725;47.526;18.986;2023-02-11T15:59:52;21.95;;;12.98;;
70313;SDS011;57725;47.526;18.986;2023-02-11T16:02:28;23.20;;;12.55;;
70313;SDS011;57725;47.526;18.986;2023-02-11T16:05:05;22.90;;;12.55;;
70313;SDS011;57725;47.526;18.986;2023-02-11T16:07:50;24.73;;;13.18;;
70313;SDS011;57725;47.526;18.986;2023-02-11T16:12:53;22.65;;;12.80;;
70313;SDS011;57725;47.526;18.986;2023-02-11T16:18:03;21.77;;;11.57;;
70313;SDS011;57725;47.526;18.986;2023-02-11T16:20:38;20.20;;;11.60;;
70313;SDS011;57725;47.526;18.986;2023-02-11T16:23:04;24.55;;;13.27;;
70313;SDS011;57725;47.526;18.986;2023-02-11T16:25:33;22.88;;;11.55;;
70313;SDS011;57725;47.526;18.986;2023-02-11T16:27:59;22.55;;;11.95;;
70313;SDS011;57725;47.526;18.986;2023-02-11T16:30:26;21.67;;;11.90;;
70313;SDS011;57725;47.526;18.986;2023-02-11T16:32:56;20.55;;;11.75;;
70313;SDS011;57725;47.526;18.986;2023-02-11T16:35:22;21.88;;;11.50;;
70313;SDS011;57725;47.526;18.986;2023-02-11T16:37:50;21.70;;;11.90;;
70313;SDS011;57725;47.526;18.986;2023-02-11T16:40:18;21.58;;;11.75;;
70313;SDS011;57725;47.526;18.986;2023-02-11T16:42:50;23.10;;;11.98;;
70313;SDS011;57725;47.526;18.986;2023-02-11T16:45:17;23.67;;;12.80;;
70313;SDS011;57725;47.526;18.986;2023-02-11T16:47:43;23.98;;;12.40;;
70313;SDS011;57725;47.526;18.986;2023-02-11T16:50:10;21.15;;;11.68;;
70313;SDS011;57725;47.526;18.986;2023-02-11T16:52:43;21.05;;;11.52;;
70313;SDS011;57725;47.526;18.986;2023-02-11T16:55:11;20.48;;;12.02;;
70313;SDS011;57725;47.526;18.986;2023-02-11T16:57:37;22.90;;;12.30;;
70313;SDS011;57725;47.526;18.986;2023-02-11T17:00:03;23.15;;;11.73;;
70313;SDS011;57725;47.526;18.986;2023-02-11T17:02:32;22.50;;;11.68;;
70313;SDS011;57725;47.526;18.986;2023-02-11T17:05:03;20.48;;;11.60;;
70313;SDS011;57725;47.526;18.986;2023-02-11T17:07:30;21.27;;;11.32;;
70313;SDS011;57725;47.526;18.986;2023-02-11T17:09:56;20.48;;;11.80;;
70313;SDS011;57725;47.526;18.986;2023-02-11T17:12:21;24.50;;;12.25;;
70313;SDS011;57725;47.526;18.986;2023-02-11T17:14:49;19.27;;;11.02;;
70313;SDS011;57725;47.526;18.986;2023-02-11T17:17:15;22.08;;;12.43;;
70313;SDS011;57725;47.526;18.986;2023-02-11T17:19:41;23.60;;;12.38;;
70313;SDS011;57725;47.526;18.986;2023-02-11T17:22:06;23.55;;;12.27;;
70313;SDS011;57725;47.526;18.986;2023-02-11T17:24:32;18.50;;;10.65;;
70313;SDS011;57725;47.526;18.986;2023-02-11T17:26:57;19.92;;;11.30;;
70313;SDS011;57725;47.526;18.986;2023-02-11T17:29:23;20.70;;;11.32;;
70313;SDS011;57725;47.526;18.986;2023-02-11T17:31:52;19.40;;;11.63;;
70313;SDS011;57725;47.526;18.986;2023-02-11T17:34:19;21.17;;;10.35;;
70313;SDS011;57725;47.526;18.986;2023-02-11T17:36:46;19.33;;;11.00;;
70313;SDS011;57725;47.526;18.986;2023-02-11T17:39:14;20.70;;;11.48;;
70313;SDS011;57725;47.526;18.986;2023-02-11T17:41:50;19.90;;;11.05;;